Time;durP1;ratioP1;P1;durP2;ratioP2;P2;SDS_P1;SDS_P2;PMS_P1;PMS_P2;Temp;Humidity;BMP_temperature;BMP_pressure;BME280_temperature;BME280_humidity;BME280_pressure;Samples;Min_cycle;Max_cycle;Signal;HPM_P1;HPM_P2
2022/06/26 00:01:15;;;;;;;1.50;1.40;;;20.70;66.70;;;;;;4975459;28;20038;-70
2022/06/26 00:03:41;;;;;;;5.72;1.38;;;20.70;65.90;;;;;;4995083;28;20038;-69
2022/06/26 00:06:07;;;;;;;2.85;1.38;;;20.70;66.70;;;;;;4994728;28;20108;-69
2022/06/26 00:08:32;;;;;;;1.58;1.23;;;20.70;66.80;;;;;;4991019;28;20038;-70
2022/06/26 00:10:58;;;;;;;3.20;1.40;;;20.70;67.00;;;;;;4983190;28;20570;-69
2022/06/26 00:13:23;;;;;;;1.52;1.33;;;20.60;66.90;;;;;;4998327;28;20040;-69
2022/06/26 00:15:49;;;;;;;1.60;1.02;;;20.60;67.10;;;;;;4998741;28;20034;-70
2022/06/26 00:18:15;;;;;;;1.30;1.17;;;20.50;67.30;;;;;;4998433;28;20137;-68
2022/06/26 00:20:41;;;;;;;1.30;1.20;;;20.50;67.40;;;;;;4991957;28;20506;-69
2022/06/26 00:23:07;;;;;;;1.77;1.23;;;20.40;67.40;;;;;;4999657;28;20034;-69
2022/06/26 00:25:32;;;;;;;2.25;1.23;;;20.40;67.50;;;;;;4995695;28;20031;-69
2022/06/26 00:27:58;;;;;;;1.35;0.90;;;20.40;67.80;;;;;;4995731;28;20042;-68
2022/06/26 00:30:24;;;;;;;2.03;0.90;;;20.40;67.70;;;;;;4998617;28;20034;-69
2022/06/26 00:32:49;;;;;;;1.33;1.17;;;20.50;67.60;;;;;;4996567;28;20046;-69
2022/06/26 00:35:15;;;;;;;1.25;1.10;;;20.50;67.60;;;;;;4995899;28;20058;-68
2022/06/26 00:37:41;;;;;;;2.60;1.58;;;20.50;67.50;;;;;;4997357;28;20394;-68
2022/06/26 00:40:07;;;;;;;2.15;1.30;;;20.50;67.50;;;;;;4996127;28;20041;-68
2022/06/26 00:42:33;;;;;;;2.38;1.33;;;20.50;67.60;;;;;;4995522;28;20065;-70
2022/06/26 00:44:59;;;;;;;1.70;1.20;;;20.50;67.70;;;;;;4997174;28;20073;-67
2022/06/26 00:47:24;;;;;;;1.88;1.10;;;20.40;67.60;;;;;;4998378;28;20042;-68
2022/06/26 00:49:51;;;;;;;4.68;1.08;;;20.40;67.80;;;;;;4998215;28;20556;-69
2022/06/26 00:52:18;;;;;;;1.17;1.08;;;20.40;67.80;;;;;;4996242;28;20041;-69
2022/06/26 00:54:44;;;;;;;1.00;0.90;;;20.40;68.10;;;;;;4996041;28;20715;-68
2022/06/26 00:57:10;;;;;;;1.23;0.93;;;20.40;68.30;;;;;;4983951;28;20034;-69
2022/06/26 00:59:36;;;;;;;1.25;0.90;;;20.40;68.30;;;;;;4978869;28;20100;-69
2022/06/26 01:02:02;;;;;;;2.67;1.10;;;20.40;68.40;;;;;;5003511;28;20433;-68
2022/06/26 01:04:28;;;;;;;2.67;0.90;;;20.40;68.40;;;;;;4997466;28;20041;-69
2022/06/26 01:06:55;;;;;;;2.58;1.02;;;20.40;68.50;;;;;;4996881;28;20042;-67
2022/06/26 01:09:21;;;;;;;2.65;1.27;;;20.40;68.60;;;;;;4994839;28;20039;-68
2022/06/26 01:11:47;;;;;;;3.17;1.00;;;20.40;68.60;;;;;;4996018;28;20290;-68
2022/06/26 01:14:13;;;;;;;2.72;1.02;;;20.30;68.60;;;;;;4997470;28;20065;-69
2022/06/26 01:16:42;;;;;;;1.60;1.05;;;20.30;68.80;;;;;;4996965;28;20057;-67
2022/06/26 01:19:09;;;;;;;1.27;1.10;;;20.20;69.20;;;;;;4996433;28;20129;-68
2022/06/26 01:21:36;;;;;;;1.80;1.10;;;20.20;69.10;;;;;;4996093;28;20038;-69
2022/06/26 01:24:02;;;;;;;2.58;1.00;;;20.10;69.20;;;;;;4996822;28;20635;-68
2022/06/26 01:26:28;;;;;;;3.58;1.30;;;20.10;69.20;;;;;;4991765;28;20037;-68
2022/06/26 01:28:54;;;;;;;1.42;1.33;;;20.10;69.30;;;;;;4998319;28;20062;-69
2022/06/26 01:31:20;;;;;;;2.63;1.30;;;20.00;69.30;;;;;;4985469;28;20100;-69
2022/06/26 01:33:47;;;;;;;1.15;1.05;;;20.00;69.30;;;;;;4994497;28;20045;-69
2022/06/26 01:36:12;;;;;;;1.63;1.30;;;20.00;69.50;;;;;;4996541;28;20117;-68
2022/06/26 01:38:38;;;;;;;2.97;1.30;;;19.90;69.30;;;;;;4997022;28;20515;-68
2022/06/26 01:41:04;;;;;;;2.30;1.48;;;19.90;69.40;;;;;;4997167;28;20120;-68
2022/06/26 01:43:34;;;;;;;1.77;1.30;;;19.80;69.50;;;;;;4995633;28;20037;-69
2022/06/26 01:46:00;;;;;;;2.10;1.30;;;19.90;69.90;;;;;;4993931;28;20049;-69
2022/06/26 01:48:27;;;;;;;1.55;1.30;;;19.90;70.00;;;;;;4987758;28;20030;-69
2022/06/26 01:50:55;;;;;;;2.20;1.23;;;19.90;70.10;;;;;;4995267;28;20225;-68
2022/06/26 01:53:22;;;;;;;1.50;1.13;;;19.90;70.30;;;;;;4997547;28;20041;-69
2022/06/26 01:55:48;;;;;;;1.40;1.30;;;19.90;70.00;;;;;;4994110;28;20670;-68
2022/06/26 01:58:13;;;;;;;1.63;1.33;;;19.90;70.80;;;;;;4998483;28;20041;-68
2022/06/26 02:00:41;;;;;;;1.60;1.15;;;20.00;69.90;;;;;;4994763;28;20038;-69
2022/06/26 02:03:08;;;;;;;2.20;1.10;;;20.00;69.80;;;;;;4998841;28;20035;-69
2022/06/26 02:05:35;;;;;;;2.30;1.30;;;20.00;69.70;;;;;;4996629;28;20038;-69
2022/06/26 02:08:01;;;;;;;2.45;1.20;;;20.00;69.60;;;;;;4996680;28;20030;-69
2022/06/26 02:15:57;;;;;;;1.67;1.30;;;20.10;69.70;;;;;;4995834;28;20076;-68
2022/06/26 02:18:24;;;;;;;1.38;1.08;;;20.00;69.50;;;;;;4997027;28;20026;-69
2022/06/26 02:20:49;;;;;;;1.48;1.30;;;20.00;69.50;;;;;;4995955;28;20061;-69
2022/06/26 02:23:15;;;;;;;1.88;1.30;;;20.00;69.50;;;;;;4997321;28;20037;-68
2022/06/26 02:25:41;;;;;;;1.90;1.20;;;20.00;69.70;;;;;;4994986;28;20129;-68
2022/06/26 02:28:07;;;;;;;2.72;1.27;;;19.90;69.80;;;;;;4985829;28;20121;-68
2022/06/26 02:30:34;;;;;;;2.10;1.27;;;19.90;70.40;;;;;;4993390;28;20046;-68
2022/06/26 02:32:59;;;;;;;2.75;1.40;;;19.90;70.60;;;;;;4994874;28;20371;-69
2022/06/26 02:35:26;;;;;;;3.67;1.20;;;19.90;70.70;;;;;;4979965;28;20034;-69
2022/06/26 02:37:54;;;;;;;2.70;1.27;;;19.90;70.90;;;;;;4992818;28;20037;-69
2022/06/26 02:40:21;;;;;;;2.25;1.20;;;19.90;70.90;;;;;;4995486;28;20066;-69
2022/06/26 02:42:47;;;;;;;1.83;1.50;;;19.90;70.80;;;;;;4995340;28;20124;-68
2022/06/26 02:45:13;;;;;;;1.98;1.42;;;20.00;70.60;;;;;;4995120;28;20022;-68
2022/06/26 02:47:38;;;;;;;1.73;1.30;;;20.00;70.70;;;;;;4994025;28;20383;-68
2022/06/26 02:50:05;;;;;;;1.52;1.42;;;20.00;71.60;;;;;;4995353;28;20038;-68
2022/06/26 02:52:31;;;;;;;3.20;1.40;;;20.10;70.80;;;;;;4992159;28;20026;-68
2022/06/26 02:54:56;;;;;;;3.63;1.30;;;20.10;70.70;;;;;;4996545;28;20518;-69
2022/06/26 02:57:22;;;;;;;1.30;1.20;;;20.10;70.60;;;;;;4994110;28;20065;-69
2022/06/26 02:59:48;;;;;;;2.20;1.27;;;20.10;70.40;;;;;;4995736;28;20037;-68
2022/06/26 03:02:13;;;;;;;1.75;1.15;;;20.10;70.30;;;;;;4994885;28;20046;-68
2022/06/26 03:04:39;;;;;;;2.78;1.30;;;20.20;70.10;;;;;;4995871;28;20038;-69
2022/06/26 03:07:05;;;;;;;1.23;1.10;;;20.20;70.00;;;;;;4995707;28;20186;-69
2022/06/26 03:09:30;;;;;;;1.35;1.20;;;20.20;70.40;;;;;;4996306;28;20034;-68
2022/06/26 03:11:56;;;;;;;3.00;1.25;;;20.20;70.20;;;;;;4996452;28;20514;-68
2022/06/26 03:14:22;;;;;;;7.35;5.15;;;20.20;70.30;;;;;;4996634;28;20045;-69
2022/06/26 03:16:47;;;;;;;51.55;24.20;;;20.20;70.10;;;;;;4994058;28;20030;-69
2022/06/26 03:19:13;;;;;;;167.88;73.75;;;20.20;70.90;;;;;;4993820;28;20041;-69
2022/06/26 03:21:39;;;;;;;114.82;50.55;;;20.20;70.20;;;;;;4994622;28;20053;-69
2022/06/26 03:24:05;;;;;;;31.73;14.95;;;20.20;70.20;;;;;;4995861;28;20066;-69
2022/06/26 03:26:35;;;;;;;10.85;5.80;;;20.20;70.00;;;;;;4994202;28;20029;-68
2022/06/26 03:29:03;;;;;;;5.07;2.90;;;20.20;70.20;;;;;;4994714;28;20038;-69
2022/06/26 03:31:29;;;;;;;2.95;1.65;;;20.20;70.00;;;;;;4994908;28;20089;-68
2022/06/26 03:33:55;;;;;;;3.35;1.70;;;20.20;70.00;;;;;;4982428;28;20434;-69
2022/06/26 03:36:22;;;;;;;3.80;1.58;;;20.20;70.00;;;;;;4994840;28;20093;-69
2022/06/26 03:38:49;;;;;;;1.77;1.25;;;20.20;70.30;;;;;;4994382;28;20638;-68
2022/06/26 03:41:14;;;;;;;2.92;2.00;;;20.20;70.20;;;;;;4990439;28;20104;-67
2022/06/26 03:43:40;;;;;;;2.08;1.17;;;20.10;70.30;;;;;;4992366;28;20487;-69
2022/06/26 03:46:06;;;;;;;1.30;1.20;;;20.10;70.40;;;;;;4994997;28;20064;-68
2022/06/26 03:48:32;;;;;;;1.38;1.15;;;20.10;70.60;;;;;;4992374;28;20037;-69
2022/06/26 03:50:57;;;;;;;1.38;1.27;;;20.10;70.60;;;;;;4990994;28;20494;-68
2022/06/26 03:53:24;;;;;;;1.75;1.33;;;20.20;70.70;;;;;;4991981;28;20065;-68
2022/06/26 03:55:50;;;;;;;1.35;1.25;;;20.20;70.90;;;;;;4992930;28;20045;-69
2022/06/26 03:58:16;;;;;;;1.15;1.05;;;20.20;70.80;;;;;;4992849;28;20034;-69
2022/06/26 04:00:42;;;;;;;1.83;1.05;;;20.20;70.80;;;;;;4989299;28;20065;-68
2022/06/26 04:03:07;;;;;;;2.90;1.30;;;20.20;70.90;;;;;;4993051;28;20724;-68
2022/06/26 04:05:35;;;;;;;1.73;1.17;;;20.20;70.90;;;;;;4990059;28;20077;-69
2022/06/26 04:08:00;;;;;;;3.38;1.40;;;20.20;71.10;;;;;;4992440;28;20034;-69
2022/06/26 04:10:27;;;;;;;2.50;1.00;;;20.20;71.90;;;;;;4989644;28;20407;-69
2022/06/26 04:12:53;;;;;;;1.40;1.30;;;20.20;71.10;;;;;;4991748;28;20278;-69
2022/06/26 04:15:19;;;;;;;2.58;1.10;;;20.20;71.40;;;;;;4991889;28;20034;-69
2022/06/26 04:17:45;;;;;;;1.58;1.25;;;20.20;71.60;;;;;;4989586;28;20034;-69
2022/06/26 04:20:11;;;;;;;1.20;1.10;;;20.20;71.80;;;;;;4992515;28;20039;-68
2022/06/26 04:22:36;;;;;;;2.92;1.20;;;20.20;72.50;;;;;;4991609;28;20046;-69
2022/06/26 04:25:03;;;;;;;1.00;0.90;;;20.20;72.80;;;;;;4988666;28;20053;-67
2022/06/26 04:27:29;;;;;;;1.77;1.08;;;20.20;72.60;;;;;;4992475;28;20031;-69
2022/06/26 04:29:55;;;;;;;1.17;1.05;;;20.20;72.80;;;;;;4992298;28;20038;-69
2022/06/26 04:32:20;;;;;;;1.25;1.10;;;20.30;72.90;;;;;;4992372;28;20065;-68
2022/06/26 04:34:46;;;;;;;2.35;1.15;;;20.30;72.70;;;;;;4990846;28;20109;-69
2022/06/26 04:37:12;;;;;;;2.58;1.23;;;20.30;72.80;;;;;;4990348;28;20042;-68
2022/06/26 04:39:37;;;;;;;2.05;1.27;;;20.30;73.10;;;;;;4991874;28;20066;-69
2022/06/26 04:42:03;;;;;;;4.30;1.05;;;20.30;72.90;;;;;;4992092;28;20553;-68
2022/06/26 04:44:29;;;;;;;1.30;1.20;;;20.30;72.80;;;;;;4991198;28;20041;-70
2022/06/26 04:46:54;;;;;;;1.73;1.23;;;20.40;72.90;;;;;;4991451;28;20539;-69
2022/06/26 04:49:20;;;;;;;1.10;1.00;;;20.40;72.80;;;;;;4991742;28;20038;-69
2022/06/26 04:51:46;;;;;;;3.92;1.00;;;20.40;72.80;;;;;;4990734;28;20035;-68
2022/06/26 04:54:12;;;;;;;4.00;1.17;;;20.50;73.00;;;;;;4991593;28;20038;-69
2022/06/26 04:56:38;;;;;;;1.90;1.15;;;20.50;73.00;;;;;;4990267;28;20504;-68
2022/06/26 04:59:05;;;;;;;1.00;1.00;;;20.50;73.00;;;;;;4992647;28;20049;-68
2022/06/26 05:01:32;;;;;;;1.20;1.00;;;20.50;73.30;;;;;;4993758;28;20069;-67
2022/06/26 05:03:58;;;;;;;1.70;0.90;;;20.50;73.20;;;;;;4993653;28;20041;-69
2022/06/26 05:06:24;;;;;;;2.20;1.35;;;20.60;73.50;;;;;;4995189;28;20129;-71
2022/06/26 05:08:50;;;;;;;1.25;0.98;;;20.60;73.60;;;;;;4994414;28;20039;-68
2022/06/26 05:11:16;;;;;;;2.47;1.40;;;20.60;73.60;;;;;;4993335;28;20038;-69
2022/06/26 05:13:41;;;;;;;1.52;1.38;;;20.70;73.90;;;;;;4993289;28;20042;-69
2022/06/26 05:16:07;;;;;;;2.30;1.30;;;20.70;73.60;;;;;;4994147;28;20616;-69
2022/06/26 05:18:33;;;;;;;2.05;1.25;;;20.70;73.70;;;;;;4996468;28;20064;-68
2022/06/26 05:20:59;;;;;;;2.88;1.30;;;20.70;73.70;;;;;;4993622;28;20667;-68
2022/06/26 05:23:25;;;;;;;1.45;1.35;;;20.70;73.50;;;;;;4997104;28;20034;-68
2022/06/26 05:25:52;;;;;;;1.98;1.20;;;20.80;73.30;;;;;;4993266;28;20588;-69
2022/06/26 05:28:18;;;;;;;3.25;1.23;;;20.80;72.80;;;;;;4996444;28;20046;-68
2022/06/26 05:30:44;;;;;;;1.30;1.20;;;20.90;72.40;;;;;;4992039;28;20118;-68
2022/06/26 05:33:10;;;;;;;1.30;1.20;;;20.90;72.30;;;;;;4993883;28;20646;-68
2022/06/26 05:35:36;;;;;;;1.02;1.02;;;21.00;72.30;;;;;;4992826;28;20030;-69
2022/06/26 05:38:02;;;;;;;0.88;0.70;;;21.00;72.00;;;;;;4995474;28;20405;-68
2022/06/26 05:40:28;;;;;;;1.17;0.82;;;21.10;71.70;;;;;;4993497;28;20092;-68
2022/06/26 05:42:55;;;;;;;1.83;0.90;;;21.10;70.80;;;;;;4994255;28;20042;-68
2022/06/26 05:45:20;;;;;;;1.33;1.23;;;21.20;70.90;;;;;;4994056;28;20395;-69
2022/06/26 05:47:46;;;;;;;3.65;0.90;;;21.20;71.50;;;;;;4992533;28;20048;-69
2022/06/26 05:50:12;;;;;;;1.52;1.08;;;21.30;70.60;;;;;;4992726;28;20035;-68
2022/06/26 05:52:37;;;;;;;1.50;1.40;;;21.40;70.60;;;;;;4994791;28;20037;-69
2022/06/26 05:55:04;;;;;;;1.30;1.20;;;21.40;70.30;;;;;;4996950;28;20029;-68
2022/06/26 05:57:29;;;;;;;1.45;1.30;;;21.50;70.20;;;;;;4992946;28;20905;-68
2022/06/26 05:59:55;;;;;;;1.42;1.27;;;21.50;70.00;;;;;;4992835;28;20498;-69
2022/06/26 06:02:20;;;;;;;1.50;1.30;;;21.60;69.70;;;;;;4995460;28;20041;-69
2022/06/26 06:04:46;;;;;;;1.38;0.80;;;21.60;69.70;;;;;;4992785;28;20116;-68
2022/06/26 06:07:12;;;;;;;1.15;1.10;;;21.70;69.50;;;;;;4995325;28;20030;-68
2022/06/26 06:09:37;;;;;;;0.77;0.77;;;21.70;69.30;;;;;;4994714;28;20030;-69
2022/06/26 06:12:03;;;;;;;0.80;0.80;;;21.80;69.20;;;;;;4995640;28;20058;-68
2022/06/26 06:14:29;;;;;;;1.15;0.82;;;21.80;69.20;;;;;;4994726;28;20039;-69
2022/06/26 06:16:55;;;;;;;0.73;0.60;;;21.90;68.80;;;;;;4991546;28;20137;-68
2022/06/26 06:19:20;;;;;;;0.70;0.70;;;21.90;68.80;;;;;;4995101;28;20501;-69
2022/06/26 06:21:46;;;;;;;1.15;0.80;;;21.90;69.00;;;;;;4991540;28;20116;-68
2022/06/26 06:24:11;;;;;;;0.80;0.80;;;22.00;68.80;;;;;;4994562;28;20031;-68
2022/06/26 06:26:37;;;;;;;0.90;0.82;;;22.00;68.80;;;;;;4991574;28;20513;-69
2022/06/26 06:29:04;;;;;;;1.05;0.80;;;22.10;68.90;;;;;;4993033;28;20160;-69
2022/06/26 06:31:29;;;;;;;1.88;0.90;;;22.10;68.50;;;;;;4993381;28;20137;-69
2022/06/26 06:33:55;;;;;;;0.77;0.77;;;22.10;68.50;;;;;;4996013;28;20608;-68
2022/06/26 06:36:20;;;;;;;1.13;0.70;;;22.10;68.30;;;;;;4978956;28;20553;-69
2022/06/26 06:38:46;;;;;;;0.82;0.82;;;22.10;68.40;;;;;;4993479;28;20050;-68
2022/06/26 06:41:12;;;;;;;1.20;0.90;;;22.10;68.70;;;;;;4994408;28;20038;-69
2022/06/26 06:43:38;;;;;;;1.75;0.90;;;22.10;68.50;;;;;;4993139;28;20029;-69
2022/06/26 06:46:03;;;;;;;0.85;0.85;;;22.20;68.70;;;;;;4993613;28;20113;-68
2022/06/26 06:48:29;;;;;;;1.20;0.70;;;22.20;68.30;;;;;;4991531;28;20081;-69
2022/06/26 06:50:54;;;;;;;2.28;0.85;;;22.30;67.80;;;;;;4991482;28;20042;-69
2022/06/26 06:53:20;;;;;;;1.65;0.82;;;22.30;67.80;;;;;;4993544;28;20116;-69
2022/06/26 06:55:46;;;;;;;0.70;0.70;;;22.40;67.60;;;;;;4991745;28;20049;-69
2022/06/26 06:58:12;;;;;;;0.65;0.60;;;22.50;66.80;;;;;;4992843;28;20122;-69
2022/06/26 07:00:37;;;;;;;0.63;0.50;;;22.50;65.80;;;;;;4992519;28;20494;-69
2022/06/26 07:03:04;;;;;;;0.40;0.40;;;22.60;64.70;;;;;;4987551;28;20317;-69
2022/06/26 07:05:30;;;;;;;1.70;0.70;;;22.60;64.40;;;;;;4991659;28;20026;-68
2022/06/26 07:07:56;;;;;;;0.70;0.70;;;22.60;64.60;;;;;;4979614;28;20169;-69
2022/06/26 07:10:23;;;;;;;0.75;0.75;;;22.60;64.90;;;;;;4994474;28;20039;-69
2022/06/26 07:12:57;;;;;;;0.80;0.80;;;22.60;65.30;;;;;;4991998;28;20038;-69
2022/06/26 07:15:23;;;;;;;0.63;0.63;;;22.70;65.80;;;;;;4984102;28;20042;-69
2022/06/26 07:17:49;;;;;;;0.70;0.65;;;22.70;66.10;;;;;;4996374;28;20411;-69
2022/06/26 07:20:15;;;;;;;1.25;0.70;;;22.80;65.80;;;;;;4992448;28;20426;-69
2022/06/26 07:22:41;;;;;;;0.90;0.63;;;22.90;65.50;;;;;;4981368;28;20104;-69
2022/06/26 07:25:07;;;;;;;0.63;0.63;;;22.90;65.30;;;;;;4992837;28;20533;-69
2022/06/26 07:27:33;;;;;;;0.98;0.80;;;23.00;65.00;;;;;;4994694;28;20424;-69
2022/06/26 07:29:58;;;;;;;0.80;0.80;;;23.00;64.70;;;;;;4992109;28;20031;-69
2022/06/26 07:32:24;;;;;;;1.17;0.73;;;23.00;64.50;;;;;;4992333;28;20037;-69
2022/06/26 07:34:50;;;;;;;1.38;0.80;;;23.10;64.10;;;;;;4992438;28;20506;-69
2022/06/26 07:37:16;;;;;;;2.00;0.63;;;23.10;64.00;;;;;;4991247;28;20044;-69
2022/06/26 07:39:41;;;;;;;1.33;0.80;;;23.20;64.00;;;;;;4991333;28;20095;-69
2022/06/26 07:42:07;;;;;;;3.58;0.80;;;23.20;65.10;;;;;;4995792;28;20034;-68
2022/06/26 07:44:33;;;;;;;7.10;0.98;;;23.30;64.70;;;;;;4990896;28;20077;-69
2022/06/26 07:46:59;;;;;;;0.80;0.80;;;23.40;65.20;;;;;;4993498;28;20034;-69
2022/06/26 07:49:24;;;;;;;1.13;0.80;;;23.40;64.80;;;;;;4991414;28;20034;-68
2022/06/26 07:51:50;;;;;;;0.88;0.70;;;23.50;64.30;;;;;;4991946;28;20041;-69
2022/06/26 07:54:16;;;;;;;1.35;0.70;;;23.60;64.10;;;;;;4990222;28;20043;-68
2022/06/26 07:56:43;;;;;;;0.80;0.80;;;23.80;63.60;;;;;;4990865;28;20066;-69
2022/06/26 07:59:08;;;;;;;1.35;0.90;;;23.80;62.90;;;;;;4989576;28;20391;-68
2022/06/26 08:01:35;;;;;;;0.85;0.85;;;24.00;62.50;;;;;;4978641;28;20036;-69
2022/06/26 08:04:01;;;;;;;1.80;1.08;;;24.10;62.40;;;;;;4989396;28;20038;-69
2022/06/26 08:06:28;;;;;;;1.98;0.90;;;24.20;61.50;;;;;;4988058;28;20031;-69
2022/06/26 08:08:53;;;;;;;0.90;0.90;;;24.30;61.60;;;;;;4993254;28;20498;-69
2022/06/26 08:11:19;;;;;;;2.22;0.80;;;24.40;61.40;;;;;;4990301;28;20333;-70
2022/06/26 08:13:45;;;;;;;0.80;0.75;;;24.50;60.10;;;;;;4992893;28;20041;-69
2022/06/26 08:16:11;;;;;;;1.48;0.70;;;24.60;59.90;;;;;;4990576;28;20045;-69
2022/06/26 08:18:37;;;;;;;1.30;0.80;;;24.70;59.80;;;;;;4989753;28;20034;-69
2022/06/26 08:23:47;;;;;;;2.10;0.63;;;24.90;59.20;;;;;;4992509;28;20040;-69
2022/06/26 08:26:13;;;;;;;1.05;1.00;;;25.00;59.60;;;;;;4988880;28;20439;-69
2022/06/26 08:28:39;;;;;;;0.77;0.70;;;25.10;58.70;;;;;;4994129;28;20493;-69
2022/06/26 08:31:04;;;;;;;1.38;0.90;;;25.20;58.10;;;;;;4992035;28;20097;-68
2022/06/26 08:33:30;;;;;;;0.80;0.80;;;25.30;58.50;;;;;;4994889;28;20037;-69
2022/06/26 08:35:56;;;;;;;1.48;1.00;;;25.40;57.80;;;;;;4995503;28;20521;-69
2022/06/26 08:38:21;;;;;;;1.50;0.90;;;25.50;57.80;;;;;;4997967;28;20034;-69
2022/06/26 08:40:47;;;;;;;1.95;0.88;;;25.50;58.10;;;;;;4995208;28;20453;-69
2022/06/26 08:43:13;;;;;;;1.65;1.00;;;25.60;58.20;;;;;;4996153;28;20065;-68
2022/06/26 08:45:42;;;;;;;1.85;0.93;;;25.70;58.00;;;;;;4994721;28;20026;-69
2022/06/26 08:48:12;;;;;;;2.05;1.00;;;25.80;57.90;;;;;;4994834;28;20073;-68
2022/06/26 08:50:38;;;;;;;1.35;0.90;;;26.00;57.10;;;;;;4991677;28;20038;-68
2022/06/26 08:53:05;;;;;;;0.93;0.70;;;26.10;57.20;;;;;;4991667;28;20165;-68
2022/06/26 08:55:31;;;;;;;0.77;0.77;;;26.10;56.60;;;;;;4995216;28;20466;-69
2022/06/26 08:57:57;;;;;;;1.70;0.70;;;26.20;56.50;;;;;;4994907;28;20026;-67
2022/06/26 09:00:23;;;;;;;1.10;0.80;;;26.30;56.30;;;;;;4996399;28;20034;-68
2022/06/26 09:02:48;;;;;;;0.93;0.90;;;26.40;56.10;;;;;;4994101;28;20041;-68
2022/06/26 09:05:14;;;;;;;1.05;0.60;;;26.50;55.20;;;;;;4980094;28;20038;-69
2022/06/26 09:07:52;;;;;;;0.63;0.60;;;26.60;55.40;;;;;;5000179;28;20058;-69
2022/06/26 09:10:21;;;;;;;0.60;0.60;;;26.70;53.30;;;;;;4987827;28;20041;-68
2022/06/26 09:12:54;;;;;;;0.60;0.60;;;26.70;54.00;;;;;;4996350;28;20045;-69
2022/06/26 09:15:21;;;;;;;0.70;0.60;;;26.80;53.50;;;;;;4999508;28;20042;-68
2022/06/26 09:17:56;;;;;;;1.05;0.70;;;26.90;55.40;;;;;;5000035;28;20037;-69
2022/06/26 09:20:22;;;;;;;0.88;0.63;;;26.90;54.60;;;;;;4999256;28;20037;-69
2022/06/26 09:22:53;;;;;;;1.08;0.60;;;27.00;53.80;;;;;;4993781;28;20050;-69
2022/06/26 09:25:19;;;;;;;0.50;0.50;;;27.10;53.60;;;;;;4995515;28;20387;-69
2022/06/26 09:27:45;;;;;;;0.60;0.60;;;27.20;53.70;;;;;;4993473;28;21036;-68
2022/06/26 09:30:11;;;;;;;0.88;0.80;;;27.30;53.70;;;;;;4997024;28;20038;-69
2022/06/26 09:32:36;;;;;;;0.60;0.60;;;27.30;53.40;;;;;;4992113;28;20095;-69
2022/06/26 09:35:02;;;;;;;1.15;0.70;;;27.40;53.00;;;;;;4996148;28;20374;-69
2022/06/26 09:37:36;;;;;;;1.92;0.60;;;27.40;53.60;;;;;;4996274;28;20363;-68
2022/06/26 09:40:03;;;;;;;0.77;0.60;;;27.50;53.70;;;;;;4997068;28;20409;-69
2022/06/26 09:42:33;;;;;;;2.53;0.65;;;27.50;53.60;;;;;;4996276;28;20404;-69
2022/06/26 09:45:01;;;;;;;1.42;0.65;;;27.70;53.50;;;;;;4997279;28;20461;-66
2022/06/26 09:47:36;;;;;;;2.10;0.70;;;27.80;52.80;;;;;;4995682;28;20034;-69
2022/06/26 09:50:06;;;;;;;1.48;0.60;;;27.80;52.10;;;;;;4995084;28;20078;-69
2022/06/26 09:52:32;;;;;;;1.00;0.80;;;28.00;52.40;;;;;;4991906;28;20081;-69
2022/06/26 09:54:59;;;;;;;0.70;0.70;;;28.00;52.20;;;;;;4995128;28;20037;-69
2022/06/26 09:57:26;;;;;;;1.45;0.60;;;28.10;52.20;;;;;;4993003;28;20575;-68
2022/06/26 09:59:53;;;;;;;0.70;0.60;;;28.20;52.00;;;;;;4993248;28;20877;-69
2022/06/26 10:07:51;;;;;;;1.05;0.93;;;28.40;51.60;;;;;;4998815;28;20045;-69
2022/06/26 10:10:21;;;;;;;0.63;0.63;;;28.50;51.40;;;;;;4997946;28;20152;-69
2022/06/26 10:12:52;;;;;;;0.93;0.70;;;28.60;51.60;;;;;;4977260;28;20056;-68
2022/06/26 10:15:20;;;;;;;0.82;0.60;;;28.70;51.30;;;;;;4997993;28;20022;-69
2022/06/26 10:17:58;;;;;;;0.82;0.52;;;28.80;50.60;;;;;;4999115;28;20621;-70
2022/06/26 10:20:25;;;;;;;0.82;0.68;;;28.90;49.30;;;;;;4999656;28;20045;-72
2022/06/26 10:22:50;;;;;;;0.60;0.60;;;29.00;49.70;;;;;;4998785;28;20041;-69
2022/06/26 10:25:28;;;;;;;0.50;0.50;;;29.10;49.60;;;;;;4999282;28;20409;-69
2022/06/26 10:27:54;;;;;;;1.42;0.63;;;29.10;48.50;;;;;;4997838;28;20034;-70
2022/06/26 10:30:23;;;;;;;1.23;0.57;;;29.10;49.00;;;;;;4998652;28;20572;-69
2022/06/26 10:33:16;;;;;;;1.70;0.60;;;29.10;49.10;;;;;;4995390;28;20050;-69
2022/06/26 10:35:46;;;;;;;0.60;0.50;;;29.20;48.50;;;;;;4997546;28;20188;-69
2022/06/26 10:38:26;;;;;;;0.63;0.63;;;29.20;49.50;;;;;;4995266;28;20042;-69
2022/06/26 10:44:15;;;;;;;0.57;0.55;;;29.30;49.10;;;;;;4998337;28;20041;-70
2022/06/26 10:46:46;;;;;;;0.98;0.73;;;29.40;48.00;;;;;;4995222;28;20580;-69
2022/06/26 10:49:12;;;;;;;0.50;0.50;;;29.50;47.90;;;;;;4997396;28;20375;-69
2022/06/26 10:51:42;;;;;;;1.40;0.60;;;29.50;49.10;;;;;;4995914;28;20036;-69
2022/06/26 10:54:27;;;;;;;0.50;0.50;;;29.60;48.10;;;;;;4996734;28;20397;-69
2022/06/26 10:57:08;;;;;;;0.70;0.60;;;29.60;46.90;;;;;;4996498;28;20108;-70
2022/06/26 10:59:39;;;;;;;0.75;0.52;;;29.60;47.50;;;;;;4980189;28;20065;-69
2022/06/26 11:02:05;;;;;;;0.50;0.40;;;29.60;48.20;;;;;;4978237;28;20033;-69
2022/06/26 11:04:30;;;;;;;0.93;0.60;;;29.70;48.10;;;;;;4994952;28;20710;-70
2022/06/26 11:06:57;;;;;;;0.93;0.65;;;29.70;47.90;;;;;;4995467;28;20030;-69
2022/06/26 11:09:22;;;;;;;0.52;0.50;;;29.80;47.70;;;;;;5000533;28;20117;-70
2022/06/26 11:11:52;;;;;;;1.05;0.55;;;29.90;47.00;;;;;;4981781;28;20137;-69
2022/06/26 11:14:17;;;;;;;0.50;0.50;;;29.80;46.90;;;;;;4981037;28;20349;-70
2022/06/26 11:16:44;;;;;;;1.40;0.43;;;29.90;47.20;;;;;;4995543;28;20062;-69
2022/06/26 11:20:46;;;;;;;0.35;0.35;;;29.90;47.00;;;;;;4998010;28;20517;-70
2022/06/26 11:22:22;;;;;;;1.00;0.50;;;29.90;46.90;;;;;;4996821;28;20045;-70
2022/06/26 11:24:53;;;;;;;0.85;0.50;;;30.00;46.80;;;;;;4996892;28;20413;-69
2022/06/26 11:27:25;;;;;;;0.65;0.50;;;30.10;46.00;;;;;;4995656;28;20097;-69
2022/06/26 11:29:54;;;;;;;0.40;0.40;;;30.20;46.40;;;;;;4996766;28;20169;-69
2022/06/26 11:32:23;;;;;;;0.40;0.40;;;30.30;46.20;;;;;;4996094;28;20084;-69
2022/06/26 11:34:51;;;;;;;0.50;0.50;;;30.30;46.50;;;;;;4996371;28;20057;-69
2022/06/26 11:37:17;;;;;;;1.30;0.50;;;30.40;46.90;;;;;;4993969;28;20033;-70
2022/06/26 11:39:43;;;;;;;0.65;0.50;;;30.50;47.00;;;;;;4996266;28;20398;-70
2022/06/26 11:42:23;;;;;;;2.22;0.40;;;30.60;47.10;;;;;;4997215;28;20060;-69
2022/06/26 11:44:50;;;;;;;3.75;0.52;;;30.60;46.20;;;;;;4994962;28;20461;-70
2022/06/26 11:47:16;;;;;;;0.50;0.50;;;30.60;46.10;;;;;;4996812;28;20029;-70
2022/06/26 11:49:42;;;;;;;0.82;0.45;;;30.70;45.80;;;;;;4995326;28;20237;-70
2022/06/26 11:52:09;;;;;;;0.50;0.50;;;30.70;46.30;;;;;;4997990;28;20033;-69
2022/06/26 11:54:35;;;;;;;0.40;0.32;;;30.70;46.60;;;;;;4997277;28;20034;-70
2022/06/26 11:57:07;;;;;;;0.32;0.32;;;30.60;46.20;;;;;;4995814;28;20482;-70
2022/06/26 11:59:33;;;;;;;0.45;0.40;;;30.70;45.10;;;;;;4995544;28;20062;-70
2022/06/26 12:01:58;;;;;;;0.32;0.30;;;30.70;45.00;;;;;;4996564;28;20058;-70
2022/06/26 12:04:24;;;;;;;0.20;0.20;;;30.70;44.60;;;;;;4996282;28;20030;-71
2022/06/26 12:06:52;;;;;;;1.05;0.38;;;30.70;44.40;;;;;;4995170;28;20030;-69
2022/06/26 12:09:20;;;;;;;0.68;0.50;;;30.70;44.30;;;;;;4997044;28;20064;-69
2022/06/26 12:11:49;;;;;;;0.30;0.30;;;30.70;44.70;;;;;;4994303;28;20038;-70
2022/06/26 12:14:17;;;;;;;0.30;0.30;;;30.80;44.20;;;;;;4995007;28;20480;-70
2022/06/26 12:16:57;;;;;;;0.28;0.28;;;30.80;43.70;;;;;;4994877;28;20030;-70
2022/06/26 12:19:24;;;;;;;0.30;0.30;;;30.80;43.30;;;;;;4996878;28;22309;-69
2022/06/26 12:21:54;;;;;;;1.27;0.50;;;30.80;43.80;;;;;;4996020;28;20026;-70
2022/06/26 12:24:21;;;;;;;0.40;0.32;;;30.90;42.90;;;;;;4996536;28;20026;-70
2022/06/26 12:26:48;;;;;;;0.40;0.30;;;30.80;43.40;;;;;;4994679;28;20033;-70
2022/06/26 12:29:16;;;;;;;0.55;0.40;;;30.90;44.30;;;;;;4995968;28;20026;-70
2022/06/26 12:31:42;;;;;;;0.55;0.40;;;30.90;44.20;;;;;;4995167;28;20034;-70
2022/06/26 12:34:09;;;;;;;0.45;0.40;;;30.90;44.00;;;;;;4995634;28;20038;-70
2022/06/26 12:36:37;;;;;;;1.02;0.38;;;31.00;43.50;;;;;;4995201;28;20413;-70
2022/06/26 12:39:03;;;;;;;0.30;0.30;;;31.00;43.70;;;;;;4997164;28;20053;-70
2022/06/26 12:41:29;;;;;;;0.40;0.40;;;31.10;43.60;;;;;;4992548;28;20041;-69
2022/06/26 12:43:57;;;;;;;0.30;0.30;;;31.20;43.90;;;;;;4995675;28;21804;-69
2022/06/26 12:46:24;;;;;;;0.85;0.40;;;31.20;43.40;;;;;;4993801;28;20085;-69
2022/06/26 12:48:50;;;;;;;0.32;0.30;;;31.20;42.60;;;;;;4995645;28;20034;-70
2022/06/26 12:51:16;;;;;;;0.50;0.50;;;31.30;42.40;;;;;;4993849;28;20030;-70
2022/06/26 12:53:43;;;;;;;0.43;0.43;;;31.30;42.70;;;;;;4995801;28;20042;-70
2022/06/26 12:56:10;;;;;;;0.43;0.43;;;31.30;43.20;;;;;;4997081;28;20502;-69
2022/06/26 12:58:36;;;;;;;0.22;0.22;;;31.30;42.70;;;;;;4994689;28;20061;-70
2022/06/26 13:01:03;;;;;;;0.30;0.30;;;31.30;42.40;;;;;;4995301;28;20536;-70